createdAt,value
2022-10-24T00:01:23.216Z,2.92
2022-10-24T00:03:50.631Z,3.20
2022-10-24T00:06:19.067Z,3.83
2022-10-24T00:08:46.652Z,3.13
2022-10-24T00:11:25.982Z,2.83
2022-10-24T00:13:55.676Z,3.20
2022-10-24T00:16:22.924Z,3.05
2022-10-24T00:18:49.884Z,3.28
2022-10-24T00:21:17.119Z,2.90
2022-10-24T00:23:44.285Z,2.75
2022-10-24T00:26:11.832Z,3.50
2022-10-24T00:28:39.074Z,3.40
2022-10-24T00:31:07.962Z,3.45
2022-10-24T00:33:35.303Z,2.47
2022-10-24T00:36:02.230Z,3.50
2022-10-24T00:38:29.146Z,3.63
2022-10-24T00:40:56.076Z,3.00
2022-10-24T00:43:26.213Z,3.20
2022-10-24T00:45:58.189Z,3.30
2022-10-24T00:48:32.168Z,3.00
2022-10-24T00:51:24.590Z,3.25
2022-10-24T00:54:03.324Z,3.22
2022-10-24T00:56:35.795Z,2.53
2022-10-24T00:59:05.916Z,2.53
2022-10-24T01:01:34.294Z,3.33
2022-10-24T01:04:01.879Z,3.10
2022-10-24T01:07:15.331Z,2.92
2022-10-24T01:10:52.873Z,3.00
2022-10-24T01:13:31.301Z,2.73
2022-10-24T01:16:24.187Z,2.78
2022-10-24T01:19:08.072Z,3.00
2022-10-24T01:21:41.578Z,2.67
2022-10-24T01:24:49.882Z,2.95
2022-10-24T01:27:43.337Z,2.97
2022-10-24T01:30:13.415Z,2.90
2022-10-24T01:33:05.973Z,2.72
2022-10-24T01:36:02.008Z,2.90
2022-10-24T01:38:39.148Z,2.75
2022-10-24T01:41:17.756Z,2.23
2022-10-24T01:44:02.321Z,2.30
2022-10-24T01:46:41.512Z,2.13
2022-10-24T01:49:19.477Z,2.28
2022-10-24T01:51:51.339Z,2.25
2022-10-24T01:54:18.542Z,2.47
2022-10-24T01:56:45.632Z,2.40
2022-10-24T01:59:28.292Z,2.17
2022-10-24T02:02:12.655Z,2.60
2022-10-24T02:04:48.739Z,2.80
2022-10-24T02:07:18.568Z,2.60
2022-10-24T02:09:49.598Z,2.20
2022-10-24T02:12:18.964Z,2.28
2022-10-24T02:14:58.605Z,2.25
2022-10-24T02:17:26.058Z,2.50
2022-10-24T02:19:53.990Z,2.37
2022-10-24T02:22:54.321Z,2.45
2022-10-24T02:25:30.545Z,2.47
2022-10-24T02:28:11.663Z,2.58
2022-10-24T02:30:50.545Z,2.88
2022-10-24T02:33:18.731Z,2.37
2022-10-24T02:35:48.322Z,2.50
2022-10-24T02:38:27.093Z,2.20
2022-10-24T02:40:55.744Z,2.55
2022-10-24T02:43:23.323Z,2.80
2022-10-24T02:45:54.121Z,2.37
2022-10-24T02:48:28.682Z,2.78
2022-10-24T02:50:55.700Z,2.42
2022-10-24T02:53:25.679Z,2.40
2022-10-24T02:55:52.952Z,2.35
2022-10-24T02:58:20.183Z,2.33
2022-10-24T03:00:47.179Z,1.92
2022-10-24T03:03:14.254Z,2.30
2022-10-24T03:05:41.146Z,1.92
2022-10-24T03:08:08.076Z,2.58
2022-10-24T03:10:35.071Z,2.23
2022-10-24T03:13:03.550Z,2.20
2022-10-24T03:15:30.802Z,2.50
2022-10-24T03:17:57.760Z,1.67
2022-10-24T03:20:24.934Z,2.33
2022-10-24T03:22:52.151Z,2.07
2022-10-24T03:25:19.074Z,2.38
2022-10-24T03:27:46.293Z,2.65
2022-10-24T03:30:13.683Z,2.42
2022-10-24T03:32:40.590Z,2.08
2022-10-24T03:35:11.680Z,1.80
2022-10-24T03:37:41.306Z,2.03
2022-10-24T03:40:10.013Z,2.30
2022-10-24T03:42:36.994Z,2.00
2022-10-24T03:45:04.518Z,2.17
2022-10-24T03:47:31.445Z,2.13
2022-10-24T03:49:58.315Z,1.67
2022-10-24T03:52:25.307Z,2.00
2022-10-24T03:54:52.179Z,1.90
2022-10-24T03:57:19.092Z,1.60
2022-10-24T03:59:46.124Z,1.53
2022-10-24T04:02:13.939Z,2.03
2022-10-24T04:04:41.955Z,2.00
2022-10-24T04:07:09.024Z,1.75
2022-10-24T04:09:36.035Z,2.03
2022-10-24T04:12:02.984Z,2.07
2022-10-24T04:14:29.871Z,1.80
2022-10-24T04:16:56.794Z,1.70
2022-10-24T04:19:23.909Z,1.65
2022-10-24T04:21:50.939Z,1.88
2022-10-24T04:24:17.888Z,2.30
2022-10-24T04:26:44.873Z,1.80
2022-10-24T04:29:11.927Z,1.65
2022-10-24T04:31:38.835Z,1.48
2022-10-24T04:34:06.192Z,1.60
2022-10-24T04:36:34.540Z,1.73
2022-10-24T04:39:01.714Z,1.50
2022-10-24T04:41:28.748Z,1.63
2022-10-24T04:43:55.979Z,1.60
2022-10-24T04:46:23.150Z,1.58
2022-10-24T04:48:50.090Z,1.73
2022-10-24T04:51:20.019Z,1.83
2022-10-24T04:53:50.465Z,1.73
2022-10-24T04:56:18.864Z,1.60
2022-10-24T04:58:45.789Z,1.95
2022-10-24T05:01:12.708Z,1.60
2022-10-24T05:03:39.611Z,1.60
2022-10-24T05:06:06.749Z,1.85
2022-10-24T05:08:33.788Z,1.95
2022-10-24T05:11:00.868Z,1.73
2022-10-24T05:13:29.735Z,1.47
2022-10-24T05:15:57.659Z,1.67
2022-10-24T05:18:24.587Z,1.92
2022-10-24T05:20:51.461Z,1.92
2022-10-24T05:23:18.372Z,1.50
2022-10-24T05:25:45.271Z,1.80
2022-10-24T05:28:12.139Z,1.50
2022-10-24T05:30:39.010Z,1.63
2022-10-24T05:33:05.944Z,1.35
2022-10-24T05:35:32.831Z,1.55
2022-10-24T05:37:59.729Z,1.27
2022-10-24T05:40:26.735Z,1.42
2022-10-24T05:42:53.692Z,1.80
2022-10-24T05:45:21.110Z,1.48
2022-10-24T05:47:48.265Z,1.88
2022-10-24T05:50:16.219Z,2.10
2022-10-24T05:52:46.248Z,1.88
2022-10-24T05:55:17.925Z,1.52
2022-10-24T05:57:45.966Z,1.40
2022-10-24T06:00:15.458Z,1.85
2022-10-24T06:02:43.313Z,1.30
2022-10-24T06:05:11.323Z,1.52
2022-10-24T06:07:39.466Z,1.98
2022-10-24T06:10:07.798Z,1.92
2022-10-24T06:12:38.135Z,2.42
2022-10-24T06:15:08.035Z,1.37
2022-10-24T06:17:35.670Z,1.80
2022-10-24T06:20:02.812Z,1.60
2022-10-24T06:22:29.873Z,1.67
2022-10-24T06:24:57.264Z,1.40
2022-10-24T06:27:24.776Z,2.00
2022-10-24T06:29:51.680Z,2.10
2022-10-24T06:32:19.013Z,1.92
2022-10-24T06:34:45.917Z,1.58
2022-10-24T06:37:12.969Z,1.65
2022-10-24T06:39:39.842Z,1.47
2022-10-24T06:42:06.766Z,1.75
2022-10-24T06:44:34.001Z,1.88
2022-10-24T06:47:00.875Z,1.73
2022-10-24T06:49:27.843Z,1.63
2022-10-24T06:51:54.790Z,1.60
2022-10-24T06:54:23.212Z,1.77
2022-10-24T06:56:52.135Z,1.67
2022-10-24T06:59:19.585Z,1.63
2022-10-24T07:01:47.139Z,1.70
2022-10-24T07:04:14.140Z,1.77
2022-10-24T07:06:41.818Z,2.20
2022-10-24T07:09:12.953Z,2.00
2022-10-24T07:11:42.525Z,1.52
2022-10-24T07:14:09.725Z,1.58
2022-10-24T07:16:36.990Z,1.77
2022-10-24T07:19:05.751Z,1.83
2022-10-24T07:21:33.926Z,1.70
2022-10-24T07:24:02.095Z,1.95
2022-10-24T07:26:30.283Z,1.70
2022-10-24T07:29:04.110Z,1.67
2022-10-24T07:31:35.060Z,2.00
2022-10-24T07:34:05.511Z,1.85
2022-10-24T07:36:32.568Z,1.85
2022-10-24T07:39:00.513Z,1.88
2022-10-24T07:41:29.580Z,1.63
2022-10-24T07:43:59.612Z,1.75
2022-10-24T07:46:26.640Z,2.08
2022-10-24T07:48:54.309Z,1.80
2022-10-24T07:51:22.103Z,2.13
2022-10-24T07:53:49.837Z,1.93
2022-10-24T07:56:18.297Z,2.20
2022-10-24T07:58:46.804Z,1.65
2022-10-24T08:01:22.305Z,1.92
2022-10-24T08:03:50.079Z,1.90
2022-10-24T08:06:21.776Z,1.67
2022-10-24T08:08:49.429Z,1.73
2022-10-24T08:11:21.720Z,1.88
2022-10-24T08:13:50.114Z,2.30
2022-10-24T08:16:20.845Z,1.95
2022-10-24T08:18:49.379Z,1.97
2022-10-24T08:21:18.886Z,1.50
2022-10-24T08:23:48.773Z,1.80
2022-10-24T08:26:21.356Z,1.50
2022-10-24T08:28:49.048Z,2.25
2022-10-24T08:31:20.942Z,1.90
2022-10-24T08:33:50.746Z,1.38
2022-10-24T08:36:28.720Z,1.77
2022-10-24T08:38:56.148Z,1.98
2022-10-24T08:41:32.730Z,1.90
2022-10-24T08:44:03.313Z,2.00
2022-10-24T08:46:55.246Z,2.17
2022-10-24T08:49:54.472Z,1.48
2022-10-24T08:52:45.262Z,1.58
2022-10-24T08:55:30.983Z,1.45
2022-10-24T08:58:06.141Z,1.70
2022-10-24T09:00:40.730Z,1.77
2022-10-24T09:03:54.553Z,1.80
2022-10-24T09:06:24.407Z,2.03
2022-10-24T09:09:18.315Z,1.95
2022-10-24T09:11:57.403Z,1.57
2022-10-24T09:14:30.252Z,1.58
2022-10-24T09:20:01.598Z,2.17
2022-10-24T09:22:33.319Z,1.58
2022-10-24T09:25:12.161Z,1.63
2022-10-24T09:27:41.574Z,1.65
2022-10-24T09:30:21.127Z,1.85
2022-10-24T09:32:48.784Z,1.85
2022-10-24T09:35:26.593Z,2.03
2022-10-24T09:37:57.359Z,1.83
2022-10-24T09:40:27.109Z,1.75
2022-10-24T09:43:01.050Z,1.88
2022-10-24T09:46:05.855Z,1.88
2022-10-24T09:48:55.816Z,2.20
2022-10-24T09:51:27.421Z,1.57
2022-10-24T09:54:18.787Z,1.63
2022-10-24T09:57:13.044Z,1.92
2022-10-24T10:00:00.319Z,1.98
2022-10-24T10:02:35.555Z,1.80
2022-10-24T10:05:05.547Z,1.80
2022-10-24T10:07:39.010Z,1.65
2022-10-24T10:10:26.682Z,1.98
2022-10-24T10:13:19.932Z,1.80
2022-10-24T10:15:53.601Z,2.40
2022-10-24T10:18:20.407Z,2.10
2022-10-24T10:21:00.954Z,2.03
2022-10-24T10:23:39.264Z,2.15
2022-10-24T10:26:30.396Z,1.90
2022-10-24T10:29:09.366Z,1.98
2022-10-24T10:32:29.496Z,1.50
2022-10-24T10:35:23.092Z,1.75
2022-10-24T10:38:40.713Z,1.20
2022-10-24T10:41:46.021Z,1.58
2022-10-24T10:44:31.890Z,1.52
2022-10-24T10:47:27.647Z,2.07
2022-10-24T10:49:59.032Z,1.23
2022-10-24T10:52:49.948Z,1.50
2022-10-24T10:55:22.528Z,2.10
2022-10-24T10:58:24.009Z,2.10
2022-10-24T11:01:44.546Z,1.60
2022-10-24T11:04:30.972Z,1.70
2022-10-24T11:07:27.760Z,1.38
2022-10-24T11:10:06.204Z,1.65
2022-10-24T11:12:41.173Z,1.98
2022-10-24T11:15:31.353Z,1.80
2022-10-24T11:18:31.566Z,1.45
2022-10-24T11:21:12.701Z,1.75
2022-10-24T11:24:13.590Z,1.58
2022-10-24T11:26:56.815Z,1.27
2022-10-24T11:29:50.880Z,1.60
2022-10-24T11:32:39.592Z,1.23
2022-10-24T11:35:29.656Z,1.20
2022-10-24T11:38:16.715Z,1.77
2022-10-24T11:40:51.677Z,1.73
2022-10-24T11:43:28.855Z,1.80
2022-10-24T11:46:22.464Z,2.00
2022-10-24T11:48:57.777Z,1.50
2022-10-24T11:51:42.170Z,2.10
2022-10-24T11:54:38.457Z,1.90
2022-10-24T11:57:16.206Z,1.93
2022-10-24T11:59:43.431Z,1.90
2022-10-24T12:03:02.799Z,1.75
2022-10-24T12:05:49.839Z,2.17
2022-10-24T12:08:47.839Z,2.00
2022-10-24T12:11:56.241Z,1.90
2022-10-24T12:14:49.935Z,2.00
2022-10-24T12:17:46.370Z,2.47
2022-10-24T12:20:20.189Z,2.17
2022-10-24T12:22:49.195Z,2.40
2022-10-24T12:25:47.228Z,2.40
2022-10-24T12:28:26.234Z,1.90
2022-10-24T12:31:15.216Z,1.92
2022-10-24T12:33:44.286Z,2.08
2022-10-24T12:36:11.576Z,1.75
2022-10-24T12:38:38.393Z,2.07
2022-10-24T12:41:34.212Z,2.47
2022-10-24T12:44:41.203Z,2.63
2022-10-24T12:47:44.226Z,1.75
2022-10-24T12:50:23.238Z,2.17
2022-10-24T12:53:03.409Z,1.87
2022-10-24T12:55:50.499Z,2.25
2022-10-24T12:58:27.821Z,1.85
2022-10-24T13:01:04.860Z,1.98
2022-10-24T13:03:52.904Z,2.22
2022-10-24T13:06:36.220Z,1.80
2022-10-24T13:09:41.625Z,1.85
2022-10-24T13:12:43.029Z,2.05
2022-10-24T13:15:22.165Z,1.92
2022-10-24T13:18:48.603Z,2.33
2022-10-24T13:24:16.171Z,2.33
2022-10-24T13:26:51.258Z,2.47
2022-10-24T13:29:24.142Z,2.55
2022-10-24T13:32:15.354Z,2.83
2022-10-24T13:34:56.027Z,2.63
2022-10-24T13:37:28.397Z,3.22
2022-10-24T13:40:08.971Z,2.40
2022-10-24T13:42:50.825Z,3.20
2022-10-24T13:45:51.863Z,3.00
2022-10-24T13:48:22.407Z,2.67
2022-10-24T13:51:01.704Z,2.90
2022-10-24T13:53:36.064Z,2.83
2022-10-24T13:56:10.769Z,3.20
2022-10-24T13:58:44.276Z,3.00
2022-10-24T14:01:28.527Z,2.70
2022-10-24T14:03:57.411Z,2.70
2022-10-24T14:06:29.019Z,2.58
2022-10-24T14:09:06.897Z,2.80
2022-10-24T14:11:35.205Z,2.63
2022-10-24T14:14:06.015Z,2.50
2022-10-24T14:16:35.558Z,3.13
2022-10-24T14:19:31.751Z,3.10
2022-10-24T14:22:00.213Z,3.10
2022-10-24T14:24:27.191Z,2.90
2022-10-24T14:26:56.761Z,3.17
2022-10-24T14:29:31.781Z,2.50
2022-10-24T14:32:07.846Z,2.80
2022-10-24T14:34:37.641Z,2.80
2022-10-24T14:37:11.624Z,2.67
2022-10-24T14:39:39.976Z,2.37
2022-10-24T14:42:16.131Z,2.78
2022-10-24T14:44:46.221Z,2.05
2022-10-24T14:47:22.354Z,2.42
2022-10-24T14:49:49.571Z,2.65
2022-10-24T14:52:32.220Z,2.20
2022-10-24T14:55:27.635Z,2.00
2022-10-24T14:57:55.226Z,3.05
2022-10-24T15:00:25.692Z,3.20
2022-10-24T15:02:56.989Z,2.90
2022-10-24T15:05:31.868Z,2.90
2022-10-24T15:08:20.976Z,3.20
2022-10-24T15:10:48.980Z,2.70
2022-10-24T15:13:21.874Z,2.55
2022-10-24T15:15:57.868Z,2.10
2022-10-24T15:18:42.120Z,2.60
2022-10-24T15:21:19.617Z,2.60
2022-10-24T15:24:07.196Z,2.35
2022-10-24T15:26:40.873Z,2.97
2022-10-24T15:29:13.655Z,1.90
2022-10-24T15:31:46.902Z,2.33
2022-10-24T15:34:20.196Z,2.78
2022-10-24T15:36:49.864Z,2.30
2022-10-24T15:39:21.422Z,1.92
2022-10-24T15:41:49.020Z,2.15
2022-10-24T15:44:22.398Z,1.90
2022-10-24T15:46:49.775Z,1.98
2022-10-24T15:49:17.044Z,2.05
2022-10-24T15:51:49.886Z,1.85
2022-10-24T15:54:21.314Z,1.95
2022-10-24T15:56:49.328Z,1.83
2022-10-24T15:59:17.310Z,2.42
2022-10-24T16:01:50.284Z,2.15
2022-10-24T16:04:18.334Z,2.00
2022-10-24T16:06:45.253Z,2.10
2022-10-24T16:09:27.601Z,2.13
2022-10-24T16:11:55.312Z,2.05
2022-10-24T16:14:25.786Z,1.88
2022-10-24T16:16:54.820Z,1.73
2022-10-24T16:19:22.003Z,2.17
2022-10-24T16:21:49.224Z,2.07
2022-10-24T16:24:16.205Z,2.00
2022-10-24T16:26:43.111Z,2.28
2022-10-24T16:29:10.391Z,2.22
2022-10-24T16:31:37.687Z,1.77
2022-10-24T16:34:04.694Z,2.40
2022-10-24T16:36:32.625Z,2.22
2022-10-24T16:38:59.529Z,2.30
2022-10-24T16:41:27.003Z,2.33
2022-10-24T16:43:56.563Z,2.50
2022-10-24T16:46:25.593Z,2.20
2022-10-24T16:48:53.205Z,2.40
2022-10-24T16:51:27.273Z,2.80
2022-10-24T16:53:54.207Z,2.40
2022-10-24T16:56:21.095Z,2.88
2022-10-24T16:58:47.986Z,2.70
2022-10-24T17:01:16.587Z,2.53
2022-10-24T17:03:47.044Z,2.95
2022-10-24T17:06:14.653Z,2.45
2022-10-24T17:08:41.739Z,3.28
2022-10-24T17:11:32.337Z,3.00
2022-10-24T17:13:58.118Z,2.90
2022-10-24T17:16:26.038Z,2.80
2022-10-24T17:19:12.106Z,2.50
2022-10-24T17:21:39.462Z,2.47
2022-10-24T17:24:11.467Z,2.53
2022-10-24T17:26:38.764Z,2.72
2022-10-24T17:29:05.911Z,3.40
2022-10-24T17:31:33.016Z,3.03
2022-10-24T17:34:00.247Z,3.28
2022-10-24T17:36:33.505Z,2.80
2022-10-24T17:39:14.451Z,3.25
2022-10-24T17:41:41.966Z,3.15
2022-10-24T17:44:16.916Z,3.30
2022-10-24T17:46:45.349Z,3.00
2022-10-24T17:49:17.761Z,3.00
2022-10-24T17:51:48.899Z,3.17
2022-10-24T17:54:16.200Z,3.40
2022-10-24T17:56:43.551Z,2.95
2022-10-24T17:59:10.517Z,3.65
2022-10-24T18:01:37.564Z,2.90
2022-10-24T18:04:04.996Z,3.30
2022-10-24T18:06:32.561Z,3.80
2022-10-24T18:08:59.549Z,3.40
2022-10-24T18:11:26.816Z,3.80
2022-10-24T18:13:54.061Z,3.70
2022-10-24T18:16:21.576Z,3.67
2022-10-24T18:18:49.489Z,4.80
2022-10-24T18:21:20.445Z,5.53
2022-10-24T18:23:48.511Z,6.95
2022-10-24T18:26:19.134Z,10.40
2022-10-24T18:28:50.415Z,12.35
2022-10-24T18:31:23.598Z,9.60
2022-10-24T18:33:51.169Z,7.80
2022-10-24T18:36:22.860Z,4.40
2022-10-24T18:38:49.958Z,3.83
2022-10-24T18:41:36.300Z,4.43
2022-10-24T18:44:25.564Z,4.50
2022-10-24T18:46:55.457Z,3.90
2022-10-24T18:49:23.206Z,4.60
2022-10-24T18:52:07.183Z,4.53
2022-10-24T18:54:58.447Z,4.70
2022-10-24T18:57:30.549Z,5.03
2022-10-24T19:00:00.744Z,4.75
2022-10-24T19:02:50.143Z,4.45
2022-10-24T19:05:21.315Z,5.10
2022-10-24T19:07:50.075Z,4.63
2022-10-24T19:10:27.104Z,4.78
2022-10-24T19:12:57.252Z,5.10
2022-10-24T19:15:24.787Z,5.10
2022-10-24T19:17:51.886Z,4.83
2022-10-24T19:20:23.309Z,5.22
2022-10-24T19:22:50.878Z,5.93
2022-10-24T19:25:18.107Z,5.53
2022-10-24T19:27:45.282Z,5.53
2022-10-24T19:30:13.398Z,4.30
2022-10-24T19:32:40.349Z,4.70
2022-10-24T19:35:07.715Z,5.38
2022-10-24T19:37:34.667Z,5.47
2022-10-24T19:40:01.558Z,5.68
2022-10-24T19:42:28.451Z,5.50
2022-10-24T19:44:56.423Z,5.07
2022-10-24T19:47:23.395Z,5.38
2022-10-24T19:49:50.379Z,5.72
2022-10-24T19:52:17.537Z,6.03
2022-10-24T19:54:44.764Z,4.93
2022-10-24T19:57:12.500Z,5.05
2022-10-24T19:59:39.472Z,6.15
2022-10-24T20:02:06.614Z,6.10
2022-10-24T20:04:33.524Z,5.80
2022-10-24T20:07:00.378Z,5.90
2022-10-24T20:09:27.234Z,5.55
2022-10-24T20:11:54.122Z,5.57
2022-10-24T20:14:24.327Z,5.65
2022-10-24T20:16:51.708Z,5.65
2022-10-24T20:19:18.779Z,5.37
2022-10-24T20:21:45.644Z,5.50
2022-10-24T20:24:12.891Z,5.68
2022-10-24T20:26:39.834Z,5.88
2022-10-24T20:29:06.780Z,5.68
2022-10-24T20:31:43.044Z,5.67
2022-10-24T20:34:10.066Z,5.50
2022-10-24T20:36:44.366Z,5.75
2022-10-24T20:39:15.939Z,6.00
2022-10-24T20:41:43.174Z,5.72
2022-10-24T20:44:11.509Z,6.77
2022-10-24T20:46:38.451Z,5.93
2022-10-24T20:49:05.477Z,6.18
2022-10-24T20:51:32.444Z,5.55
2022-10-24T20:53:59.380Z,6.10
2022-10-24T20:56:26.625Z,5.17
2022-10-24T20:58:55.476Z,5.45
2022-10-24T21:01:26.245Z,4.85
2022-10-24T21:03:54.782Z,5.47
2022-10-24T21:06:29.681Z,5.85
2022-10-24T21:09:00.571Z,5.57
2022-10-24T21:11:31.175Z,5.50
2022-10-24T21:14:11.322Z,5.57
2022-10-24T21:16:38.502Z,5.70
2022-10-24T21:19:05.412Z,5.65
2022-10-24T21:21:32.738Z,5.73
2022-10-24T21:24:04.340Z,6.10
2022-10-24T21:26:38.442Z,6.60
2022-10-24T21:29:31.530Z,6.13
2022-10-24T21:31:53.964Z,6.65
2022-10-24T21:34:20.827Z,6.27
2022-10-24T21:36:48.493Z,6.32
2022-10-24T21:39:17.136Z,5.97
2022-10-24T21:41:44.732Z,6.30
2022-10-24T21:44:11.818Z,6.15
2022-10-24T21:46:38.965Z,6.23
2022-10-24T21:49:05.862Z,6.25
2022-10-24T21:51:36.499Z,6.32
2022-10-24T21:54:18.500Z,6.40
2022-10-24T21:56:46.000Z,6.38
2022-10-24T21:59:17.540Z,6.60
2022-10-24T22:01:47.613Z,6.63
2022-10-24T22:04:15.855Z,6.80
2022-10-24T22:06:44.180Z,6.43
2022-10-24T22:09:15.788Z,6.10
2022-10-24T22:11:43.311Z,6.07
2022-10-24T22:14:13.644Z,5.93
2022-10-24T22:16:41.894Z,6.05
2022-10-24T22:19:11.661Z,5.65
2022-10-24T22:21:45.397Z,5.72
2022-10-24T22:24:18.202Z,6.17
2022-10-24T22:26:45.679Z,5.75
2022-10-24T22:29:21.107Z,6.32
2022-10-24T22:31:49.208Z,6.88
2022-10-24T22:34:22.879Z,6.07
2022-10-24T22:37:14.560Z,6.10
2022-10-24T22:39:42.045Z,6.63
2022-10-24T22:42:13.580Z,6.75
2022-10-24T22:44:44.222Z,6.90
2022-10-24T22:47:30.420Z,7.00
2022-10-24T22:50:37.669Z,6.53
2022-10-24T22:53:08.880Z,6.32
2022-10-24T22:56:01.335Z,6.90
2022-10-24T22:58:28.712Z,6.05
2022-10-24T23:01:27.644Z,6.53
2022-10-24T23:04:14.119Z,6.10
2022-10-24T23:06:56.930Z,6.82
2022-10-24T23:09:23.864Z,6.35
2022-10-24T23:11:51.243Z,6.20
2022-10-24T23:14:18.581Z,6.20
2022-10-24T23:17:00.747Z,4.83
2022-10-24T23:19:32.836Z,6.07
2022-10-24T23:22:22.265Z,5.70
2022-10-24T23:24:51.172Z,6.38
2022-10-24T23:27:39.579Z,6.03
2022-10-24T23:30:15.768Z,5.00
2022-10-24T23:32:43.459Z,4.95
2022-10-24T23:35:14.013Z,5.82
2022-10-24T23:37:47.379Z,4.95
2022-10-24T23:40:17.229Z,5.65
2022-10-24T23:42:45.895Z,5.97
2022-10-24T23:45:15.594Z,5.05
2022-10-24T23:47:57.827Z,6.70
2022-10-24T23:50:45.488Z,6.90
2022-10-24T23:53:27.307Z,6.80
2022-10-24T23:55:54.612Z,6.77
2022-10-24T23:58:21.671Z,7.35
